createdAt,value
2022-10-03T00:01:35.875Z,2.05
2022-10-03T00:04:27.946Z,2.17
2022-10-03T00:07:43.994Z,2.30
2022-10-03T00:10:37.935Z,2.00
2022-10-03T00:13:09.197Z,2.10
2022-10-03T00:15:55.758Z,2.47
2022-10-03T00:18:44.841Z,2.22
2022-10-03T00:21:41.530Z,2.20
2022-10-03T00:24:21.914Z,2.10
2022-10-03T00:27:07.712Z,2.50
2022-10-03T00:29:41.896Z,2.20
2022-10-03T00:32:31.650Z,2.20
2022-10-03T00:35:30.262Z,2.10
2022-10-03T00:38:33.085Z,2.08
2022-10-03T00:41:34.216Z,2.30
2022-10-03T00:44:23.502Z,2.30
2022-10-03T00:47:16.411Z,2.35
2022-10-03T00:50:03.051Z,2.20
2022-10-03T00:52:43.494Z,1.95
2022-10-03T00:55:36.504Z,2.28
2022-10-03T00:58:37.769Z,2.28
2022-10-03T01:01:33.635Z,2.33
2022-10-03T01:04:31.622Z,2.60
2022-10-03T01:07:24.521Z,2.13
2022-10-03T01:10:15.496Z,2.75
2022-10-03T01:13:22.237Z,2.10
2022-10-03T01:16:29.091Z,4.80
2022-10-03T01:19:44.257Z,2.53
2022-10-03T01:22:31.284Z,2.60
2022-10-03T01:25:20.132Z,2.70
2022-10-03T01:28:46.960Z,6.10
2022-10-03T01:31:24.994Z,4.68
2022-10-03T01:34:30.844Z,2.28
2022-10-03T01:37:19.886Z,2.90
2022-10-03T01:40:18.489Z,2.42
2022-10-03T01:42:58.576Z,2.50
2022-10-03T01:45:48.887Z,4.68
2022-10-03T01:48:33.087Z,2.70
2022-10-03T01:51:18.119Z,4.18
2022-10-03T01:54:08.941Z,3.83
2022-10-03T01:57:09.147Z,2.78
2022-10-03T01:59:56.993Z,4.18
2022-10-03T02:02:36.007Z,4.03
2022-10-03T02:05:22.225Z,4.75
2022-10-03T02:08:30.930Z,4.20
2022-10-03T02:11:01.973Z,3.75
2022-10-03T02:13:47.519Z,2.95
2022-10-03T02:16:43.529Z,3.42
2022-10-03T02:19:23.419Z,3.20
2022-10-03T02:21:59.436Z,2.78
2022-10-03T02:24:39.794Z,3.75
2022-10-03T02:27:40.035Z,3.20
2022-10-03T02:30:29.581Z,2.95
2022-10-03T02:33:21.637Z,3.10
2022-10-03T02:36:13.540Z,3.25
2022-10-03T02:39:13.684Z,4.25
2022-10-03T02:42:00.201Z,3.58
2022-10-03T02:44:52.600Z,3.42
2022-10-03T02:48:19.864Z,3.80
2022-10-03T02:50:50.954Z,3.85
2022-10-03T02:53:37.228Z,3.38
2022-10-03T02:56:43.750Z,3.08
2022-10-03T02:59:30.239Z,3.60
2022-10-03T03:02:37.759Z,4.00
2022-10-03T03:05:44.884Z,5.38
2022-10-03T03:08:37.031Z,3.85
2022-10-03T03:11:20.187Z,4.28
2022-10-03T03:14:00.611Z,3.67
2022-10-03T03:16:43.861Z,3.72
2022-10-03T03:19:30.181Z,3.30
2022-10-03T03:22:36.392Z,3.28
2022-10-03T03:25:43.875Z,3.60
2022-10-03T03:28:35.438Z,3.20
2022-10-03T03:31:35.302Z,3.08
2022-10-03T03:34:09.008Z,2.83
2022-10-03T03:36:58.284Z,3.17
2022-10-03T03:39:44.108Z,3.00
2022-10-03T03:43:03.228Z,3.35
2022-10-03T03:45:58.583Z,3.53
2022-10-03T03:48:48.106Z,3.63
2022-10-03T03:51:37.230Z,3.40
2022-10-03T03:54:28.663Z,3.30
2022-10-03T03:57:26.556Z,3.20
2022-10-03T04:00:07.520Z,3.13
2022-10-03T04:03:08.884Z,3.20
2022-10-03T04:06:07.345Z,3.60
2022-10-03T04:09:02.996Z,3.35
2022-10-03T04:11:43.282Z,3.80
2022-10-03T04:14:45.810Z,3.65
2022-10-03T04:18:10.751Z,3.88
2022-10-03T04:21:00.113Z,3.22
2022-10-03T04:23:51.917Z,3.10
2022-10-03T04:27:28.370Z,3.17
2022-10-03T04:30:10.094Z,3.22
2022-10-03T04:33:02.223Z,2.88
2022-10-03T04:36:14.079Z,3.13
2022-10-03T04:39:09.513Z,2.78
2022-10-03T04:41:54.601Z,3.28
2022-10-03T04:44:49.604Z,2.92
2022-10-03T04:47:46.914Z,3.00
2022-10-03T04:50:39.461Z,3.10
2022-10-03T04:53:23.788Z,3.22
2022-10-03T04:56:23.639Z,2.83
2022-10-03T04:59:20.402Z,2.97
2022-10-03T05:02:16.651Z,2.88
2022-10-03T05:05:01.492Z,3.20
2022-10-03T05:07:48.056Z,2.92
2022-10-03T05:10:37.637Z,2.85
2022-10-03T05:13:34.231Z,3.03
2022-10-03T05:16:17.871Z,3.17
2022-10-03T05:19:01.939Z,3.20
2022-10-03T05:21:58.008Z,2.72
2022-10-03T05:24:50.146Z,3.15
2022-10-03T05:27:39.593Z,2.40
2022-10-03T05:30:16.058Z,3.30
2022-10-03T05:33:08.536Z,2.88
2022-10-03T05:36:07.630Z,3.10
2022-10-03T05:39:15.443Z,2.90
2022-10-03T05:42:21.362Z,3.50
2022-10-03T05:48:57.969Z,2.72
2022-10-03T05:51:48.548Z,3.10
2022-10-03T05:54:42.015Z,2.78
2022-10-03T05:57:38.576Z,2.80
2022-10-03T06:00:18.407Z,2.72
2022-10-03T06:03:26.342Z,2.55
2022-10-03T06:06:26.327Z,2.63
2022-10-03T06:09:25.147Z,2.85
2022-10-03T06:12:15.783Z,2.63
2022-10-03T06:15:32.119Z,2.88
2022-10-03T06:18:33.171Z,2.30
2022-10-03T06:21:25.645Z,3.08
2022-10-03T06:24:14.836Z,2.78
2022-10-03T06:27:04.155Z,2.80
2022-10-03T06:30:13.844Z,2.38
2022-10-03T06:33:01.285Z,2.55
2022-10-03T06:35:55.227Z,2.50
2022-10-03T06:38:47.661Z,2.47
2022-10-03T06:41:36.742Z,2.50
2022-10-03T06:44:17.784Z,2.75
2022-10-03T06:47:21.758Z,2.35
2022-10-03T06:50:14.992Z,2.40
2022-10-03T06:53:09.567Z,2.40
2022-10-03T06:56:10.001Z,2.45
2022-10-03T06:59:06.906Z,2.30
2022-10-03T07:01:59.492Z,2.47
2022-10-03T07:04:54.707Z,2.10
2022-10-03T07:07:58.072Z,2.00
2022-10-03T07:10:59.158Z,2.17
2022-10-03T07:14:12.232Z,2.30
2022-10-03T07:17:08.100Z,1.92
2022-10-03T07:20:00.759Z,2.50
2022-10-03T07:23:02.449Z,1.77
2022-10-03T07:25:36.818Z,2.10
2022-10-03T07:28:41.116Z,2.33
2022-10-03T07:34:06.305Z,2.35
2022-10-03T07:37:15.677Z,1.90
2022-10-03T07:40:08.157Z,2.35
2022-10-03T07:42:57.154Z,2.03
2022-10-03T07:45:47.630Z,2.13
2022-10-03T07:48:51.876Z,2.10
2022-10-03T07:54:22.724Z,2.03
2022-10-03T07:59:56.247Z,1.98
2022-10-03T08:03:29.449Z,1.90
2022-10-03T08:06:29.017Z,2.40
2022-10-03T08:09:24.616Z,1.80
2022-10-03T08:12:04.744Z,1.92
2022-10-03T08:14:54.715Z,1.80
2022-10-03T08:18:02.392Z,2.08
2022-10-03T08:20:56.939Z,1.80
2022-10-03T08:23:55.173Z,1.90
2022-10-03T08:26:41.532Z,2.15
2022-10-03T08:29:30.959Z,1.70
2022-10-03T08:32:33.662Z,2.25
2022-10-03T08:35:23.195Z,1.95
2022-10-03T08:38:35.071Z,1.85
2022-10-03T08:44:05.054Z,1.90
2022-10-03T08:47:03.891Z,1.75
2022-10-03T08:50:15.838Z,1.60
2022-10-03T08:53:18.709Z,1.60
2022-10-03T08:55:57.252Z,1.63
2022-10-03T08:59:04.663Z,1.70
2022-10-03T09:01:56.666Z,1.52
2022-10-03T09:05:19.231Z,1.67
2022-10-03T09:08:25.166Z,1.63
2022-10-03T09:11:26.246Z,1.70
2022-10-03T09:14:35.740Z,1.88
2022-10-03T09:17:18.994Z,1.75
2022-10-03T09:20:17.937Z,1.70
2022-10-03T09:23:11.706Z,1.80
2022-10-03T09:25:45.498Z,1.73
2022-10-03T09:28:41.189Z,1.98
2022-10-03T09:31:33.510Z,1.50
2022-10-03T09:34:56.695Z,2.15
2022-10-03T09:37:59.615Z,1.52
2022-10-03T09:41:00.601Z,1.73
2022-10-03T09:44:01.428Z,1.50
2022-10-03T09:47:13.662Z,1.67
2022-10-03T09:50:38.017Z,1.60
2022-10-03T09:53:33.716Z,1.50
2022-10-03T09:56:28.685Z,1.58
2022-10-03T09:59:26.667Z,1.65
2022-10-03T10:02:24.836Z,1.67
2022-10-03T10:05:32.087Z,2.03
2022-10-03T10:08:16.444Z,3.00
2022-10-03T10:11:14.412Z,5.30
2022-10-03T10:14:17.957Z,4.93
2022-10-03T10:17:09.622Z,5.37
2022-10-03T10:19:56.712Z,5.88
2022-10-03T10:22:45.416Z,5.78
2022-10-03T10:25:26.086Z,5.03
2022-10-03T10:28:25.497Z,5.35
2022-10-03T10:31:23.334Z,5.80
2022-10-03T10:34:24.639Z,7.18
2022-10-03T10:37:34.414Z,9.50
2022-10-03T10:40:26.246Z,8.35
2022-10-03T10:43:29.035Z,9.43
2022-10-03T10:46:36.505Z,9.20
2022-10-03T10:49:32.048Z,9.68
2022-10-03T10:52:08.720Z,8.27
2022-10-03T10:55:10.816Z,9.80
2022-10-03T10:58:05.939Z,9.15
2022-10-03T11:00:56.552Z,9.10
2022-10-03T11:03:30.766Z,8.60
2022-10-03T11:06:24.521Z,9.20
2022-10-03T11:09:19.376Z,8.07
2022-10-03T11:12:16.365Z,7.97
2022-10-03T11:15:16.511Z,7.93
2022-10-03T11:18:04.894Z,7.55
2022-10-03T11:20:59.896Z,7.13
2022-10-03T11:24:07.131Z,7.47
2022-10-03T11:27:25.658Z,7.60
2022-10-03T11:30:24.713Z,7.40
2022-10-03T11:33:03.303Z,7.80
2022-10-03T11:35:55.657Z,8.07
2022-10-03T11:38:26.634Z,7.30
2022-10-03T11:41:27.801Z,7.30
2022-10-03T11:44:29.484Z,7.43
2022-10-03T11:47:29.758Z,7.43
2022-10-03T11:50:38.157Z,7.80
2022-10-03T11:53:24.875Z,7.93
2022-10-03T11:56:21.691Z,7.03
2022-10-03T11:59:12.668Z,7.07
2022-10-03T12:02:11.615Z,6.55
2022-10-03T12:05:22.196Z,6.95
2022-10-03T12:08:35.816Z,6.97
2022-10-03T12:11:20.015Z,6.68
2022-10-03T12:14:12.481Z,6.82
2022-10-03T12:17:13.970Z,8.10
2022-10-03T12:20:25.498Z,7.20
2022-10-03T12:23:31.148Z,7.15
2022-10-03T12:26:05.934Z,6.20
2022-10-03T12:28:43.167Z,6.28
2022-10-03T12:31:53.598Z,7.05
2022-10-03T12:34:44.872Z,6.50
2022-10-03T12:37:52.376Z,7.25
2022-10-03T12:40:37.859Z,6.75
2022-10-03T12:43:30.197Z,6.55
2022-10-03T12:46:40.956Z,6.50
2022-10-03T12:49:33.965Z,6.75
2022-10-03T12:52:17.612Z,6.60
2022-10-03T12:55:09.392Z,6.35
2022-10-03T12:57:50.852Z,6.30
2022-10-03T13:00:29.664Z,5.95
2022-10-03T13:03:36.046Z,6.60
2022-10-03T13:07:01.853Z,7.38
2022-10-03T13:09:55.768Z,6.57
2022-10-03T13:12:40.766Z,6.55
2022-10-03T13:15:48.810Z,7.53
2022-10-03T13:18:44.450Z,5.85
2022-10-03T13:21:56.048Z,6.45
2022-10-03T13:24:50.420Z,6.45
2022-10-03T13:27:43.744Z,6.53
2022-10-03T13:30:23.164Z,6.37
2022-10-03T13:33:20.997Z,7.32
2022-10-03T13:36:16.926Z,7.07
2022-10-03T13:39:12.651Z,6.10
2022-10-03T13:42:12.025Z,6.63
2022-10-03T13:44:54.615Z,6.47
2022-10-03T13:47:42.236Z,6.82
2022-10-03T13:50:45.351Z,7.45
2022-10-03T13:53:39.621Z,8.68
2022-10-03T13:56:17.958Z,7.07
2022-10-03T13:59:14.345Z,10.52
2022-10-03T14:02:10.363Z,6.70
2022-10-03T14:05:17.572Z,6.57
2022-10-03T14:08:34.459Z,7.32
2022-10-03T14:11:27.487Z,10.35
2022-10-03T14:14:26.575Z,7.85
2022-10-03T14:17:08.864Z,7.10
2022-10-03T14:20:24.754Z,6.77
2022-10-03T14:23:19.263Z,8.18
2022-10-03T14:26:01.815Z,7.38
2022-10-03T14:28:53.342Z,7.60
2022-10-03T14:31:35.111Z,6.85
2022-10-03T14:37:25.355Z,5.97
2022-10-03T14:40:43.081Z,6.03
2022-10-03T14:43:47.580Z,7.07
2022-10-03T14:46:23.223Z,8.23
2022-10-03T14:49:25.176Z,7.75
2022-10-03T14:52:31.432Z,9.20
2022-10-03T14:55:21.276Z,12.30
2022-10-03T14:58:10.380Z,7.20
2022-10-03T15:00:49.207Z,7.75
2022-10-03T15:03:23.513Z,7.07
2022-10-03T15:06:03.420Z,6.03
2022-10-03T15:08:42.193Z,6.35
2022-10-03T15:11:17.480Z,6.35
2022-10-03T15:14:03.978Z,7.18
2022-10-03T15:16:59.863Z,7.40
2022-10-03T15:19:43.076Z,9.00
2022-10-03T15:22:20.988Z,7.53
2022-10-03T15:24:55.767Z,7.55
2022-10-03T15:27:28.399Z,7.10
2022-10-03T15:30:05.960Z,6.63
2022-10-03T15:32:46.025Z,6.75
2022-10-03T15:35:45.668Z,7.43
2022-10-03T15:38:28.923Z,9.40
2022-10-03T15:41:19.067Z,12.30
2022-10-03T15:44:05.582Z,10.15
2022-10-03T15:46:49.390Z,9.88
2022-10-03T15:49:39.495Z,7.22
2022-10-03T15:52:43.122Z,7.03
2022-10-03T15:55:47.950Z,6.40
2022-10-03T15:58:38.170Z,6.90
2022-10-03T16:01:45.623Z,6.50
2022-10-03T16:04:35.142Z,6.00
2022-10-03T16:07:17.242Z,6.68
2022-10-03T16:10:26.036Z,5.25
2022-10-03T16:13:04.029Z,5.50
2022-10-03T16:15:35.814Z,6.22
2022-10-03T16:18:40.311Z,5.78
2022-10-03T16:21:18.570Z,6.15
2022-10-03T16:23:54.693Z,5.28
2022-10-03T16:26:52.154Z,5.78
2022-10-03T16:29:34.721Z,5.45
2022-10-03T16:32:11.853Z,5.28
2022-10-03T16:34:46.310Z,5.57
2022-10-03T16:37:25.340Z,5.38
2022-10-03T16:40:09.652Z,5.43
2022-10-03T16:42:50.521Z,5.22
2022-10-03T16:45:43.456Z,5.63
2022-10-03T16:48:56.241Z,5.07
2022-10-03T16:51:38.378Z,5.72
2022-10-03T16:54:14.951Z,4.82
2022-10-03T16:57:05.026Z,4.97
2022-10-03T16:59:39.075Z,5.18
2022-10-03T17:02:22.406Z,5.35
2022-10-03T17:04:58.512Z,5.75
2022-10-03T17:07:40.010Z,5.75
2022-10-03T17:10:41.110Z,5.28
2022-10-03T17:13:19.322Z,5.18
2022-10-03T17:16:02.062Z,4.80
2022-10-03T17:18:41.558Z,5.32
2022-10-03T17:21:30.445Z,5.30
2022-10-03T17:24:10.291Z,4.97
2022-10-03T17:26:50.991Z,4.85
2022-10-03T17:29:36.662Z,5.57
2022-10-03T17:32:21.326Z,4.80
2022-10-03T17:35:36.695Z,4.93
2022-10-03T17:38:48.949Z,4.72
2022-10-03T17:41:49.972Z,4.88
2022-10-03T17:44:47.489Z,4.95
2022-10-03T17:47:33.791Z,5.35
2022-10-03T17:50:17.508Z,4.65
2022-10-03T17:52:50.552Z,4.70
2022-10-03T17:55:41.288Z,4.88
2022-10-03T17:58:18.684Z,4.95
2022-10-03T18:01:08.118Z,5.20
2022-10-03T18:04:01.619Z,4.60
2022-10-03T18:06:41.507Z,4.32
2022-10-03T18:09:24.216Z,4.43
2022-10-03T18:12:01.265Z,4.95
2022-10-03T18:14:45.521Z,4.10
2022-10-03T18:17:42.633Z,4.60
2022-10-03T18:20:24.520Z,4.60
2022-10-03T18:23:53.671Z,4.50
2022-10-03T18:26:35.293Z,4.47
2022-10-03T18:29:12.799Z,4.03
2022-10-03T18:31:50.066Z,4.75
2022-10-03T18:34:21.234Z,3.65
2022-10-03T18:36:54.656Z,4.88
2022-10-03T18:39:28.853Z,4.65
2022-10-03T18:42:02.833Z,4.40
2022-10-03T18:44:36.115Z,4.80
2022-10-03T18:47:48.225Z,4.70
2022-10-03T18:50:46.759Z,3.92
2022-10-03T18:53:29.274Z,4.85
2022-10-03T18:56:14.925Z,4.82
2022-10-03T18:58:58.683Z,4.40
2022-10-03T19:01:57.395Z,4.80
2022-10-03T19:04:38.757Z,4.38
2022-10-03T19:07:44.966Z,4.70
2022-10-03T19:10:29.986Z,4.47
2022-10-03T19:13:31.764Z,4.38
2022-10-03T19:16:19.343Z,4.68
2022-10-03T19:19:08.347Z,4.55
2022-10-03T19:22:03.990Z,4.63
2022-10-03T19:24:57.412Z,4.50
2022-10-03T19:27:45.214Z,4.30
2022-10-03T19:30:22.697Z,4.40
2022-10-03T19:33:28.236Z,4.28
2022-10-03T19:36:04.764Z,3.92
2022-10-03T19:38:47.304Z,4.60
2022-10-03T19:41:40.134Z,4.57
2022-10-03T19:44:18.582Z,3.85
2022-10-03T19:47:10.524Z,3.88
2022-10-03T19:50:27.505Z,4.20
2022-10-03T19:52:58.942Z,4.00
2022-10-03T19:55:38.401Z,3.97
2022-10-03T19:58:24.319Z,3.70
2022-10-03T20:00:58.429Z,4.47
2022-10-03T20:03:45.556Z,3.78
2022-10-03T20:06:40.921Z,4.30
2022-10-03T20:09:33.031Z,3.85
2022-10-03T20:12:16.033Z,4.07
2022-10-03T20:14:53.136Z,4.28
2022-10-03T20:17:26.527Z,3.58
2022-10-03T20:20:09.365Z,3.95
2022-10-03T20:22:41.746Z,3.85
2022-10-03T20:25:26.434Z,3.53
2022-10-03T20:28:05.903Z,3.88
2022-10-03T20:30:48.088Z,4.82
2022-10-03T20:33:26.148Z,4.13
2022-10-03T20:36:15.429Z,4.43
2022-10-03T20:39:05.186Z,4.07
2022-10-03T20:42:04.865Z,4.18
2022-10-03T20:44:47.608Z,4.10
2022-10-03T20:47:37.325Z,4.20
2022-10-03T20:50:22.339Z,4.40
2022-10-03T20:52:56.237Z,4.43
2022-10-03T20:56:07.555Z,4.00
2022-10-03T20:58:56.085Z,3.90
2022-10-03T21:01:29.253Z,4.10
2022-10-03T21:04:30.828Z,4.00
2022-10-03T21:07:27.806Z,4.45
2022-10-03T21:10:07.843Z,3.40
2022-10-03T21:12:47.387Z,3.90
2022-10-03T21:15:39.296Z,3.85
2022-10-03T21:18:18.258Z,3.83
2022-10-03T21:20:50.706Z,4.13
2022-10-03T21:23:26.635Z,4.22
2022-10-03T21:26:02.645Z,3.85
2022-10-03T21:28:36.265Z,4.38
2022-10-03T21:34:30.215Z,3.75
2022-10-03T21:37:19.125Z,3.72
2022-10-03T21:40:06.759Z,3.60
2022-10-03T21:43:08.543Z,3.95
2022-10-03T21:45:51.296Z,3.90
2022-10-03T21:48:51.086Z,4.28
2022-10-03T21:51:47.411Z,3.65
2022-10-03T21:58:04.071Z,4.40
2022-10-03T22:00:56.005Z,4.45
2022-10-03T22:04:24.029Z,3.97
2022-10-03T22:07:15.087Z,3.63
2022-10-03T22:09:57.003Z,3.80
2022-10-03T22:12:42.639Z,4.13
2022-10-03T22:15:25.123Z,3.75
2022-10-03T22:18:17.867Z,3.58
2022-10-03T22:21:16.101Z,4.00
2022-10-03T22:24:14.139Z,3.75
2022-10-03T22:27:07.790Z,3.90
2022-10-03T22:29:41.483Z,3.80
2022-10-03T22:35:11.350Z,4.05
2022-10-03T22:40:28.965Z,3.60
2022-10-03T22:43:04.563Z,3.78
2022-10-03T22:45:41.860Z,4.30
2022-10-03T22:48:38.046Z,4.60
2022-10-03T22:51:13.229Z,4.15
2022-10-03T22:53:53.962Z,4.18
2022-10-03T22:56:55.285Z,4.63
2022-10-03T22:59:29.837Z,4.00
2022-10-03T23:02:08.754Z,3.80
2022-10-03T23:04:46.585Z,4.25
2022-10-03T23:07:39.024Z,4.07
2022-10-03T23:10:47.471Z,4.18
2022-10-03T23:13:36.925Z,4.28
2022-10-03T23:16:35.249Z,4.45
2022-10-03T23:19:30.568Z,4.65
2022-10-03T23:22:02.453Z,4.97
2022-10-03T23:25:08.451Z,4.68
2022-10-03T23:27:55.373Z,4.50
2022-10-03T23:30:35.989Z,4.63
2022-10-03T23:33:16.470Z,5.50
2022-10-03T23:35:49.448Z,4.28
2022-10-03T23:38:36.163Z,3.97
2022-10-03T23:41:12.233Z,4.18
2022-10-03T23:43:56.940Z,4.00
2022-10-03T23:46:32.928Z,4.35
2022-10-03T23:49:04.872Z,3.88
2022-10-03T23:51:38.297Z,4.22
2022-10-03T23:54:13.071Z,4.32
2022-10-03T23:56:50.690Z,4.20
2022-10-03T23:59:29.038Z,4.05
